Time;durP1;ratioP1;P1;durP2;ratioP2;P2;SDS_P1;SDS_P2;PMS_P1;PMS_P2;Temp;Humidity;BMP_temperature;BMP_pressure;BME280_temperature;BME280_humidity;BME280_pressure;Samples;Min_cycle;Max_cycle;Signal;HPM_P1;HPM_P2
2022/03/04 00:01:08;;;;;;;;;;;10.50;99.90;;;;;;5015804;28;19932;-83
2022/03/04 00:03:37;;;;;;;;;;;8.90;99.90;;;;;;5019801;28;19926;-83
2022/03/04 00:06:05;;;;;;;;;;;10.60;99.90;;;;;;5029354;28;19929;-82
2022/03/04 00:08:36;;;;;;;;;;;10.50;99.90;;;;;;5028180;28;19925;-84
2022/03/04 00:11:04;;;;;;;;;;;10.40;99.90;;;;;;5000152;28;19929;-82
2022/03/04 00:13:33;;;;;;;;;;;10.50;99.90;;;;;;5046275;28;19925;-81
2022/03/04 00:16:04;;;;;;;;;;;10.50;99.90;;;;;;5026420;28;19926;-81
2022/03/04 00:18:32;;;;;;;;;;;10.50;99.90;;;;;;5006332;28;20501;-82
2022/03/04 00:21:04;;;;;;;;;;;10.50;99.90;;;;;;5024980;28;19944;-82
2022/03/04 00:23:34;;;;;;;;;;;10.60;99.90;;;;;;5006859;28;19936;-82
2022/03/04 00:26:04;;;;;;;;;;;10.60;99.90;;;;;;5025723;28;19929;-83
2022/03/04 00:28:32;;;;;;;;;;;10.50;99.90;;;;;;5033656;28;19929;-84
2022/03/04 00:31:04;;;;;;;;;;;10.40;99.90;;;;;;5015985;28;19926;-83
2022/03/04 00:33:32;;;;;;;;;;;10.50;99.90;;;;;;5005719;28;19940;-82
2022/03/04 00:36:01;;;;;;;;;;;10.40;99.90;;;;;;5006720;28;19997;-83
2022/03/04 00:38:29;;;;;;;;;;;10.40;99.90;;;;;;5005564;28;19920;-82
2022/03/04 00:40:58;;;;;;;;;;;10.40;99.90;;;;;;5011774;28;19925;-82
2022/03/04 00:43:27;;;;;;;;;;;10.40;99.90;;;;;;5023287;28;19929;-81
2022/03/04 00:45:55;;;;;;;;;;;10.40;99.90;;;;;;5020819;28;19930;-82
2022/03/04 00:48:23;;;;;;;;;;;10.40;99.90;;;;;;5023272;28;19933;-81
2022/03/04 00:50:51;;;;;;;;;;;10.40;99.90;;;;;;5009026;28;19922;-82
2022/03/04 00:53:20;;;;;;;;;;;11.30;99.90;;;;;;5035086;28;19922;-82
2022/03/04 00:55:48;;;;;;;;;;;10.40;99.90;;;;;;5013442;28;19940;-83
2022/03/04 00:58:16;;;;;;;;;;;10.40;99.90;;;;;;5022342;28;19926;-82
2022/03/04 01:00:44;;;;;;;;;;;10.60;99.90;;;;;;5025742;28;19925;-83
2022/03/04 01:03:12;;;;;;;;;;;10.40;99.90;;;;;;5025338;28;19929;-84
2022/03/04 01:05:43;;;;;;;;;;;10.30;99.90;;;;;;5025913;28;19929;-81
2022/03/04 01:08:11;;;;;;;;;;;10.40;99.90;;;;;;5024536;28;19926;-81
2022/03/04 01:10:39;;;;;;;;;;;10.30;99.90;;;;;;5024579;28;19926;-83
2022/03/04 01:13:07;;;;;;;;;;;10.50;99.90;;;;;;5024303;28;19936;-83
2022/03/04 01:15:41;;;;;;;;;;;10.30;99.90;;;;;;5005847;28;19930;-82
2022/03/04 01:18:09;;;;;;;;;;;10.30;99.90;;;;;;5023448;28;19925;-82
2022/03/04 01:20:37;;;;;;;;;;;10.30;99.90;;;;;;5020863;28;19932;-83
2022/03/04 01:23:05;;;;;;;;;;;11.00;99.90;;;;;;5018348;28;19945;-83
2022/03/04 01:25:36;;;;;;;;;;;10.10;99.90;;;;;;5020974;28;19932;-83
2022/03/04 01:28:04;;;;;;;;;;;10.20;99.90;;;;;;5018016;28;19926;-83
2022/03/04 01:30:32;;;;;;;;;;;10.90;99.90;;;;;;5008893;28;20147;-83
2022/03/04 01:33:01;;;;;;;;;;;10.40;99.90;;;;;;5013782;28;19930;-83
2022/03/04 01:35:30;;;;;;;;;;;10.40;99.90;;;;;;5024832;28;19937;-84
2022/03/04 01:37:58;;;;;;;;;;;10.20;99.90;;;;;;5005816;28;19932;-82
2022/03/04 01:40:27;;;;;;;;;;;10.20;99.90;;;;;;5021168;28;19937;-81
2022/03/04 01:42:56;;;;;;;;;;;10.20;99.90;;;;;;5038912;28;19925;-82
2022/03/04 01:45:24;;;;;;;;;;;10.30;99.90;;;;;;5020064;28;19936;-82
2022/03/04 01:47:53;;;;;;;;;;;10.10;99.90;;;;;;5022742;28;20229;-84
2022/03/04 01:50:24;;;;;;;;;;;10.00;99.90;;;;;;5021144;28;19934;-82
2022/03/04 01:52:52;;;;;;;;;;;10.20;99.90;;;;;;5017278;28;19934;-82
2022/03/04 01:55:21;;;;;;;;;;;10.00;99.90;;;;;;5021396;28;19925;-82
2022/03/04 01:57:51;;;;;;;;;;;10.10;99.90;;;;;;5034804;28;19926;-83
2022/03/04 02:00:19;;;;;;;;;;;10.10;99.90;;;;;;5027768;28;19928;-83
2022/03/04 02:02:50;;;;;;;;;;;10.00;99.90;;;;;;4994081;28;19925;-83
2022/03/04 02:05:19;;;;;;;;;;;9.90;99.90;;;;;;5027913;28;19925;-83
2022/03/04 02:07:47;;;;;;;;;;;10.00;99.90;;;;;;5008926;28;19926;-81
2022/03/04 02:10:15;;;;;;;;;;;10.00;99.90;;;;;;5015837;28;20008;-83
2022/03/04 02:12:44;;;;;;;;;;;9.90;99.90;;;;;;5022519;28;19925;-82
2022/03/04 02:15:12;;;;;;;;;;;9.90;99.90;;;;;;5008045;28;19930;-82
2022/03/04 02:17:40;;;;;;;;;;;10.00;99.90;;;;;;5011534;28;19936;-83
2022/03/04 02:20:09;;;;;;;;;;;9.90;99.90;;;;;;5010801;28;19925;-83
2022/03/04 02:22:37;;;;;;;;;;;9.90;99.90;;;;;;5002685;28;20004;-83
2022/03/04 02:25:07;;;;;;;;;;;10.00;99.90;;;;;;5017686;28;20695;-80
2022/03/04 02:27:35;;;;;;;;;;;10.00;99.90;;;;;;5018418;28;19929;-82
2022/03/04 02:30:05;;;;;;;;;;;10.00;99.90;;;;;;5012072;28;19935;-83
2022/03/04 02:32:34;;;;;;;;;;;10.00;99.90;;;;;;5002202;28;19936;-82
2022/03/04 02:35:03;;;;;;;;;;;10.10;99.90;;;;;;5008431;28;19929;-82
2022/03/04 02:37:31;;;;;;;;;;;10.10;99.90;;;;;;5018651;28;19932;-82
2022/03/04 02:39:59;;;;;;;;;;;10.30;99.90;;;;;;5028610;28;19930;-82
2022/03/04 03:53:53;;;;;;;;;;;10.00;99.90;;;;;;5016737;28;19925;-83
2022/03/04 03:56:23;;;;;;;;;;;10.10;99.90;;;;;;5011933;28;19926;-81
2022/03/04 03:58:51;;;;;;;;;;;10.00;99.90;;;;;;5016301;28;19957;-83
2022/03/04 04:01:19;;;;;;;;;;;10.20;99.90;;;;;;5011359;28;19925;-81
2022/03/04 04:03:48;;;;;;;;;;;10.30;99.90;;;;;;5009097;28;19925;-83
2022/03/04 04:06:18;;;;;;;;;;;11.10;99.90;;;;;;5021952;28;19940;-82
2022/03/04 04:08:46;;;;;;;;;;;10.20;99.90;;;;;;5041019;28;19914;-83
2022/03/04 04:11:15;;;;;;;;;;;10.00;99.90;;;;;;5013005;28;19929;-82
2022/03/04 04:13:43;;;;;;;;;;;10.00;99.90;;;;;;5022185;28;19936;-81
2022/03/04 04:16:11;;;;;;;;;;;10.20;99.90;;;;;;5008214;28;19963;-81
2022/03/04 04:18:39;;;;;;;;;;;10.20;99.90;;;;;;5009562;28;19925;-82
2022/03/04 04:21:07;;;;;;;;;;;9.30;99.90;;;;;;5022273;28;19925;-82
2022/03/04 04:23:35;;;;;;;;;;;9.80;99.90;;;;;;5007968;28;19925;-82
2022/03/04 04:26:05;;;;;;;;;;;10.00;99.90;;;;;;5042436;28;19929;-82
2022/03/04 04:28:33;;;;;;;;;;;10.00;99.90;;;;;;5034591;28;19929;-82
2022/03/04 04:31:02;;;;;;;;;;;9.70;99.90;;;;;;5027081;28;19936;-84
2022/03/04 04:33:31;;;;;;;;;;;10.00;99.90;;;;;;5026532;28;19940;-83
2022/03/04 04:36:00;;;;;;;;;;;11.50;99.90;;;;;;5020395;28;19929;-82
2022/03/04 04:38:28;;;;;;;;;;;10.00;99.90;;;;;;5008568;28;19930;-82
2022/03/04 04:40:57;;;;;;;;;;;10.10;99.90;;;;;;5009522;28;19940;-82
2022/03/04 04:43:25;;;;;;;;;;;10.30;99.90;;;;;;5027722;28;19925;-82
2022/03/04 04:45:54;;;;;;;;;;;10.00;99.90;;;;;;5024136;28;20474;-81
2022/03/04 04:48:22;;;;;;;;;;;10.20;99.90;;;;;;5007589;28;20489;-84
2022/03/04 04:50:50;;;;;;;;;;;11.10;99.90;;;;;;5023591;28;19937;-84
2022/03/04 04:53:18;;;;;;;;;;;10.00;99.90;;;;;;5006449;28;19930;-83
2022/03/04 04:55:48;;;;;;;;;;;10.00;99.90;;;;;;5023078;28;20298;-84
2022/03/04 04:58:17;;;;;;;;;;;10.00;99.90;;;;;;5024489;28;19925;-82
2022/03/04 05:00:50;;;;;;;;;;;9.90;99.90;;;;;;5025915;28;19929;-83
2022/03/04 05:03:43;;;;;;;;;;;9.80;99.90;;;;;;5025332;28;19921;-83
2022/03/04 05:06:19;;;;;;;;;;;9.90;99.90;;;;;;5008935;28;19932;-83
2022/03/04 05:08:46;;;;;;;;;;;8.70;99.90;;;;;;5009158;28;19925;-82
2022/03/04 05:11:14;;;;;;;;;;;9.80;99.90;;;;;;5008872;28;19934;-81
2022/03/04 05:13:42;;;;;;;;;;;10.00;99.90;;;;;;5027365;28;19929;-83
2022/03/04 05:16:11;;;;;;;;;;;9.80;99.90;;;;;;5026551;28;19956;-82
2022/03/04 05:18:41;;;;;;;;;;;9.80;99.90;;;;;;5026040;28;19932;-83
2022/03/04 05:21:09;;;;;;;;;;;10.00;99.90;;;;;;5010254;28;19926;-81
2022/03/04 05:26:24;;;;;;;;;;;9.80;99.90;;;;;;5020953;28;19925;-82
2022/03/04 05:28:52;;;;;;;;;;;9.00;99.90;;;;;;5031257;28;19926;-81
2022/03/04 05:31:20;;;;;;;;;;;10.40;99.90;;;;;;5021693;28;19932;-80
2022/03/04 05:33:49;;;;;;;;;;;9.80;99.90;;;;;;5018628;28;19936;-81
2022/03/04 05:36:17;;;;;;;;;;;9.80;99.90;;;;;;5013730;28;19930;-82
2022/03/04 05:38:46;;;;;;;;;;;9.90;99.90;;;;;;5013727;28;19926;-81
2022/03/04 05:41:16;;;;;;;;;;;9.70;99.90;;;;;;5010856;28;19945;-81
2022/03/04 05:43:45;;;;;;;;;;;9.80;99.90;;;;;;5019028;28;19929;-82
2022/03/04 05:46:18;;;;;;;;;;;9.70;99.90;;;;;;5006125;28;19930;-82
2022/03/04 05:48:46;;;;;;;;;;;9.80;99.90;;;;;;4994255;28;19925;-81
2022/03/04 05:51:14;;;;;;;;;;;9.70;99.90;;;;;;5027478;28;19937;-82
2022/03/04 05:53:43;;;;;;;;;;;9.70;99.90;;;;;;5037354;28;19936;-82
2022/03/04 05:56:11;;;;;;;;;;;9.80;99.90;;;;;;5028427;28;19926;-82
2022/03/04 05:58:40;;;;;;;;;;;10.10;99.90;;;;;;5027999;28;19929;-81
2022/03/04 06:01:08;;;;;;;;;;;9.70;99.90;;;;;;5007494;28;19933;-82
2022/03/04 06:03:37;;;;;;;;;;;9.90;99.90;;;;;;5041569;28;19933;-82
2022/03/04 06:06:05;;;;;;;;;;;9.70;99.90;;;;;;5029100;28;19930;-82
2022/03/04 06:08:33;;;;;;;;;;;9.80;99.90;;;;;;5040796;28;19925;-81
2022/03/04 06:11:02;;;;;;;;;;;10.10;99.90;;;;;;5013870;28;19935;-82
2022/03/04 06:13:31;;;;;;;;;;;9.70;99.90;;;;;;5027956;28;19940;-83
2022/03/04 06:16:00;;;;;;;;;;;9.70;99.90;;;;;;5025614;28;19933;-82
2022/03/04 06:18:28;;;;;;;;;;;9.60;99.90;;;;;;5024217;28;19926;-82
2022/03/04 06:20:56;;;;;;;;;;;10.00;99.90;;;;;;5029292;28;19929;-82
2022/03/04 06:23:24;;;;;;;;;;;9.70;99.90;;;;;;5017964;28;19936;-83
2022/03/04 06:25:55;;;;;;;;;;;8.10;99.90;;;;;;5029079;28;19933;-83
2022/03/04 06:28:25;;;;;;;;;;;9.70;99.90;;;;;;5027152;28;19933;-83
2022/03/04 06:30:54;;;;;;;;;;;9.70;99.90;;;;;;5027749;28;19929;-81
2022/03/04 06:33:33;;;;;;;;;;;9.90;99.90;;;;;;5027603;28;19935;-83
2022/03/04 06:36:13;;;;;;;;;;;8.10;99.90;;;;;;5010791;28;20004;-83
2022/03/04 06:38:42;;;;;;;;;;;9.60;99.90;;;;;;5028698;28;19944;-82
2022/03/04 06:41:11;;;;;;;;;;;9.60;99.90;;;;;;5015551;28;19968;-83
2022/03/04 06:43:47;;;;;;;;;;;9.80;99.90;;;;;;5035274;28;19929;-83
2022/03/04 06:46:24;;;;;;;;;;;9.60;99.90;;;;;;5024976;28;19920;-82
2022/03/04 06:48:56;;;;;;;;;;;9.60;99.90;;;;;;5027114;28;19940;-82
2022/03/04 06:51:25;;;;;;;;;;;9.70;99.90;;;;;;5029403;28;20506;-81
2022/03/04 06:53:54;;;;;;;;;;;10.70;99.90;;;;;;5022084;28;19932;-82
2022/03/04 06:56:23;;;;;;;;;;;9.60;99.90;;;;;;5024141;28;19926;-83
2022/03/04 06:59:35;;;;;;;;;;;9.70;99.90;;;;;;5024119;28;19935;-81
2022/03/04 07:02:07;;;;;;;;;;;9.70;99.90;;;;;;5021984;28;19940;-82
2022/03/04 07:04:36;;;;;;;;;;;9.50;99.90;;;;;;5030693;28;19939;-81
2022/03/04 07:07:04;;;;;;;;;;;9.90;99.90;;;;;;5029232;28;19954;-81
2022/03/04 07:09:38;;;;;;;;;;;9.80;99.90;;;;;;5032512;28;19909;-81
2022/03/04 07:15:12;;;;;;;;;;;9.80;99.90;;;;;;5038286;28;19934;-82
2022/03/04 07:17:45;;;;;;;;;;;8.40;99.90;;;;;;5029069;28;19929;-81
2022/03/04 07:20:15;;;;;;;;;;;10.80;99.90;;;;;;5010563;28;19925;-82
2022/03/04 07:22:49;;;;;;;;;;;9.70;99.90;;;;;;5023774;28;19925;-83
2022/03/04 07:25:19;;;;;;;;;;;11.30;99.90;;;;;;5024782;28;19944;-83
2022/03/04 07:27:49;;;;;;;;;;;10.00;99.90;;;;;;5027943;28;19930;-81
2022/03/04 07:30:23;;;;;;;;;;;10.10;99.90;;;;;;5033660;28;19925;-82
2022/03/04 07:32:58;;;;;;;;;;;9.90;99.90;;;;;;5026954;28;19936;-82
2022/03/04 07:35:30;;;;;;;;;;;9.90;99.90;;;;;;5026341;28;19929;-81
2022/03/04 07:37:58;;;;;;;;;;;10.00;99.90;;;;;;5024141;28;19926;-80
2022/03/04 07:40:27;;;;;;;;;;;9.00;99.90;;;;;;5023831;28;19929;-82
2022/03/04 07:43:01;;;;;;;;;;;10.00;99.90;;;;;;5020647;28;19940;-84
2022/03/04 07:45:49;;;;;;;;;;;10.20;99.90;;;;;;5016560;28;19926;-82
2022/03/04 07:48:22;;;;;;;;;;;10.20;99.90;;;;;;5019705;28;19936;-84
2022/03/04 07:50:50;;;;;;;;;;;10.10;99.90;;;;;;5020053;28;19930;-81
2022/03/04 07:53:19;;;;;;;;;;;10.30;99.90;;;;;;5020268;28;19933;-80
2022/03/04 07:55:47;;;;;;;;;;;10.20;99.90;;;;;;5032091;28;19914;-82
2022/03/04 07:58:14;;;;;;;;;;;10.20;99.90;;;;;;5014340;28;20373;-82
2022/03/04 08:00:44;;;;;;;;;;;10.20;99.90;;;;;;5026022;28;19925;-83
2022/03/04 08:03:32;;;;;;;;;;;10.30;99.90;;;;;;5006015;28;20390;-80
2022/03/04 08:06:00;;;;;;;;;;;10.50;99.90;;;;;;5016014;28;19937;-82
2022/03/04 08:08:31;;;;;;;;;;;10.30;99.90;;;;;;5008398;28;19936;-83
2022/03/04 08:10:59;;;;;;;;;;;10.30;99.90;;;;;;5021820;28;19929;-80
2022/03/04 08:13:27;;;;;;;;;;;10.40;99.90;;;;;;5001992;28;19930;-82
2022/03/04 08:15:56;;;;;;;;;;;10.50;99.90;;;;;;5017770;28;19941;-83
2022/03/04 08:18:24;;;;;;;;;;;10.50;99.90;;;;;;5017829;28;19948;-83
2022/03/04 08:20:51;;;;;;;;;;;10.50;99.90;;;;;;5020998;28;19926;-81
2022/03/04 08:23:19;;;;;;;;;;;10.70;99.90;;;;;;5022322;28;19926;-83
2022/03/04 08:25:49;;;;;;;;;;;10.60;99.90;;;;;;5007899;28;19926;-84
2022/03/04 08:28:20;;;;;;;;;;;10.80;99.90;;;;;;5041387;28;19930;-86
2022/03/04 08:30:48;;;;;;;;;;;10.70;99.90;;;;;;5021251;28;19937;-84
2022/03/04 08:33:16;;;;;;;;;;;10.40;99.90;;;;;;5012697;28;20458;-83
2022/03/04 08:35:44;;;;;;;;;;;10.80;99.90;;;;;;5005586;28;19930;-84
2022/03/04 08:38:13;;;;;;;;;;;10.80;99.90;;;;;;5008049;28;19930;-83
2022/03/04 08:41:06;;;;;;;;;;;12.50;99.90;;;;;;5028435;28;19929;-83
2022/03/04 08:43:35;;;;;;;;;;;10.90;99.90;;;;;;5024288;28;19939;-84
2022/03/04 08:46:03;;;;;;;;;;;11.20;99.90;;;;;;5022839;28;19930;-82
2022/03/04 08:48:31;;;;;;;;;;;11.20;99.90;;;;;;5026953;28;19914;-81
2022/03/04 08:51:00;;;;;;;;;;;11.00;99.90;;;;;;5022733;28;20476;-81
2022/03/04 08:53:28;;;;;;;;;;;11.00;99.90;;;;;;5021606;28;20279;-81
2022/03/04 08:55:55;;;;;;;;;;;11.00;99.90;;;;;;5022927;28;19933;-81
2022/03/04 08:58:24;;;;;;;;;;;11.10;99.90;;;;;;5023869;28;19926;-82
2022/03/04 09:00:52;;;;;;;;;;;10.90;99.90;;;;;;5024872;28;19925;-82
2022/03/04 09:03:20;;;;;;;;;;;11.60;99.90;;;;;;5022636;28;19951;-81
2022/03/04 09:05:49;;;;;;;;;;;11.20;99.90;;;;;;5023362;28;19940;-83
2022/03/04 09:08:17;;;;;;;;;;;11.20;99.90;;;;;;5020132;28;20322;-82
2022/03/04 09:10:48;;;;;;;;;;;11.20;99.90;;;;;;5023024;28;20681;-84
2022/03/04 09:13:18;;;;;;;;;;;11.30;99.90;;;;;;5023773;28;19926;-83
2022/03/04 09:15:46;;;;;;;;;;;11.30;99.90;;;;;;5023520;28;19929;-79
2022/03/04 09:18:14;;;;;;;;;;;11.30;99.90;;;;;;5034307;28;19925;-82
2022/03/04 09:20:42;;;;;;;;;;;11.70;99.90;;;;;;5024243;28;19929;-81
2022/03/04 09:23:10;;;;;;;;;;;11.40;99.90;;;;;;5031915;28;20359;-81
2022/03/04 09:25:38;;;;;;;;;;;11.30;99.90;;;;;;5040188;28;20409;-79
2022/03/04 09:28:07;;;;;;;;;;;11.30;99.90;;;;;;5039270;28;20314;-81
2022/03/04 09:30:36;;;;;;;;;;;11.30;99.90;;;;;;5023679;28;19940;-83
2022/03/04 09:33:04;;;;;;;;;;;11.40;99.90;;;;;;5022803;28;20418;-81
2022/03/04 09:35:32;;;;;;;;;;;11.50;99.90;;;;;;5020260;28;20454;-83
2022/03/04 09:38:00;;;;;;;;;;;11.60;99.90;;;;;;5021370;28;19929;-83
2022/03/04 09:40:30;;;;;;;;;;;11.50;99.90;;;;;;5009032;28;19929;-82
2022/03/04 09:42:58;;;;;;;;;;;11.60;99.90;;;;;;5025442;28;19926;-84
2022/03/04 09:45:26;;;;;;;;;;;11.60;99.90;;;;;;5003572;28;19933;-83
2022/03/04 09:47:55;;;;;;;;;;;11.80;99.90;;;;;;5018761;28;19925;-82
2022/03/04 09:50:26;;;;;;;;;;;11.60;99.90;;;;;;5024177;28;19933;-83
2022/03/04 09:52:55;;;;;;;;;;;11.60;99.90;;;;;;5029826;28;19932;-82
2022/03/04 09:55:23;;;;;;;;;;;11.60;99.90;;;;;;5033211;28;19945;-82
2022/03/04 09:57:55;;;;;;;;;;;11.60;99.90;;;;;;5023178;28;19925;-83
2022/03/04 10:00:24;;;;;;;;;;;11.60;99.90;;;;;;5002351;28;19925;-82
2022/03/04 10:02:54;;;;;;;;;;;11.70;99.90;;;;;;5017823;28;19940;-82
2022/03/04 10:05:23;;;;;;;;;;;11.70;99.90;;;;;;5021073;28;19935;-81
2022/03/04 10:07:52;;;;;;;;;;;11.70;99.90;;;;;;5035057;28;19934;-83
2022/03/04 10:10:22;;;;;;;;;;;11.70;99.90;;;;;;5021426;28;19930;-83
2022/03/04 10:12:55;;;;;;;;;;;11.60;99.90;;;;;;5023477;28;19940;-82
2022/03/04 10:15:27;;;;;;;;;;;11.60;99.90;;;;;;5005499;28;19941;-82
2022/03/04 10:17:58;;;;;;;;;;;11.30;99.90;;;;;;5008724;28;19933;-82
2022/03/04 10:20:34;;;;;;;;;;;11.30;99.90;;;;;;5006710;28;19925;-83
2022/03/04 10:23:09;;;;;;;;;;;11.30;99.90;;;;;;5002039;28;19937;-83
2022/03/04 10:25:36;;;;;;;;;;;11.20;99.90;;;;;;5025325;28;19941;-83
2022/03/04 10:28:09;;;;;;;;;;;11.00;99.90;;;;;;5020597;28;19930;-81
2022/03/04 10:30:37;;;;;;;;;;;10.90;99.90;;;;;;5025695;28;19945;-82
2022/03/04 10:33:08;;;;;;;;;;;10.80;99.90;;;;;;5029971;28;19926;-83
2022/03/04 10:35:37;;;;;;;;;;;10.60;99.90;;;;;;5026745;28;19934;-83
2022/03/04 10:38:06;;;;;;;;;;;10.60;99.90;;;;;;5026373;28;19925;-81
2022/03/04 10:40:44;;;;;;;;;;;9.00;99.90;;;;;;5009362;28;19926;-83
2022/03/04 10:43:12;;;;;;;;;;;10.50;99.90;;;;;;5026227;28;19930;-82
2022/03/04 10:45:42;;;;;;;;;;;10.40;99.90;;;;;;5026373;28;19936;-83
2022/03/04 10:48:14;;;;;;;;;;;9.80;99.90;;;;;;5008542;28;19929;-83
2022/03/04 10:50:45;;;;;;;;;;;10.70;99.90;;;;;;5007512;28;19933;-81
2022/03/04 10:53:14;;;;;;;;;;;10.10;99.90;;;;;;5030111;28;19936;-83
2022/03/04 10:55:44;;;;;;;;;;;10.10;99.90;;;;;;5023509;28;19936;-81
2022/03/04 10:58:15;;;;;;;;;;;10.10;99.90;;;;;;5024550;28;19929;-81
2022/03/04 11:00:45;;;;;;;;;;;10.10;99.90;;;;;;5007137;28;19926;-81
2022/03/04 11:03:18;;;;;;;;;;;10.10;99.90;;;;;;5008344;28;19925;-81
2022/03/04 11:05:48;;;;;;;;;;;10.10;99.90;;;;;;5009070;28;19933;-82
2022/03/04 11:08:16;;;;;;;;;;;10.10;99.90;;;;;;5027920;28;19929;-80
2022/03/04 11:10:44;;;;;;;;;;;10.10;99.90;;;;;;4994293;28;19940;-83
2022/03/04 11:13:15;;;;;;;;;;;10.40;99.90;;;;;;5010942;28;19926;-84
2022/03/04 11:15:44;;;;;;;;;;;10.10;99.90;;;;;;4992497;28;19949;-82
2022/03/04 11:18:13;;;;;;;;;;;10.10;99.90;;;;;;5023529;28;19936;-82
2022/03/04 11:20:43;;;;;;;;;;;10.10;99.90;;;;;;5007487;28;20285;-83
2022/03/04 11:23:23;;;;;;;;;;;10.10;99.90;;;;;;5008552;28;19932;-82
2022/03/04 11:25:55;;;;;;;;;;;10.10;99.90;;;;;;5013037;28;19921;-81
2022/03/04 11:28:42;;;;;;;;;;;10.00;99.90;;;;;;5009828;28;20009;-80
2022/03/04 11:31:15;;;;;;;;;;;10.00;99.90;;;;;;5006193;28;19939;-82
2022/03/04 11:33:57;;;;;;;;;;;10.10;99.90;;;;;;5024349;28;20570;-81
2022/03/04 11:36:25;;;;;;;;;;;10.10;99.90;;;;;;5021563;28;19929;-82
2022/03/04 11:38:56;;;;;;;;;;;10.10;99.90;;;;;;5007651;28;19937;-83
2022/03/04 11:41:24;;;;;;;;;;;10.10;99.90;;;;;;5005525;28;19936;-81
2022/03/04 11:43:55;;;;;;;;;;;10.10;99.90;;;;;;5013997;28;19929;-82
2022/03/04 11:46:24;;;;;;;;;;;10.10;99.90;;;;;;5009537;28;20365;-81
2022/03/04 11:49:12;;;;;;;;;;;10.10;99.90;;;;;;5009407;28;19932;-83
2022/03/04 11:51:59;;;;;;;;;;;10.00;99.90;;;;;;5009265;28;19945;-82
2022/03/04 11:54:27;;;;;;;;;;;10.00;99.90;;;;;;5025458;28;19929;-82
2022/03/04 11:57:02;;;;;;;;;;;9.90;99.90;;;;;;5001878;28;19933;-81
2022/03/04 11:59:31;;;;;;;;;;;9.80;99.90;;;;;;5005349;28;19933;-82
2022/03/04 12:02:03;;;;;;;;;;;9.80;99.90;;;;;;5022863;28;19926;-82
2022/03/04 12:04:38;;;;;;;;;;;9.80;99.90;;;;;;5023755;28;19929;-86
2022/03/04 12:07:14;;;;;;;;;;;9.00;99.90;;;;;;5006993;28;19936;-82
2022/03/04 12:09:48;;;;;;;;;;;9.80;99.90;;;;;;5017296;28;19926;-82
2022/03/04 12:12:24;;;;;;;;;;;8.90;99.90;;;;;;5022129;28;19929;-83
2022/03/04 12:14:54;;;;;;;;;;;9.80;99.90;;;;;;5036073;28;19930;-83
2022/03/04 12:17:22;;;;;;;;;;;10.40;99.90;;;;;;5040974;28;19936;-82
2022/03/04 12:19:50;;;;;;;;;;;9.80;99.90;;;;;;5044795;28;19935;-83
2022/03/04 12:22:18;;;;;;;;;;;9.80;99.90;;;;;;5024670;28;20211;-83
2022/03/04 12:24:54;;;;;;;;;;;10.20;99.90;;;;;;5007478;28;19956;-83
2022/03/04 12:27:36;;;;;;;;;;;9.70;99.90;;;;;;5025408;28;19944;-82
2022/03/04 12:30:21;;;;;;;;;;;9.80;99.90;;;;;;5007235;28;19926;-84
2022/03/04 12:32:52;;;;;;;;;;;9.70;99.90;;;;;;5025427;28;19925;-83
2022/03/04 12:35:21;;;;;;;;;;;9.70;99.90;;;;;;5017931;28;19929;-83
2022/03/04 12:38:01;;;;;;;;;;;9.70;99.90;;;;;;5020824;28;19930;-83
2022/03/04 12:40:32;;;;;;;;;;;10.00;99.90;;;;;;5039667;28;19933;-84
2022/03/04 12:43:05;;;;;;;;;;;9.70;99.90;;;;;;5032295;28;19925;-83
2022/03/04 12:45:34;;;;;;;;;;;9.70;99.90;;;;;;5023269;28;19937;-82
2022/03/04 12:48:02;;;;;;;;;;;9.50;99.90;;;;;;5024344;28;19932;-81
2022/03/04 12:50:31;;;;;;;;;;;9.50;99.90;;;;;;5040081;28;19940;-82
2022/03/04 12:53:17;;;;;;;;;;;9.40;99.90;;;;;;5004814;28;19946;-82
2022/03/04 12:55:49;;;;;;;;;;;9.60;99.90;;;;;;5024126;28;19932;-80
2022/03/04 12:58:32;;;;;;;;;;;9.40;99.90;;;;;;5018585;28;19926;-82
2022/03/04 13:01:02;;;;;;;;;;;9.40;99.90;;;;;;5027420;28;19925;-81
2022/03/04 13:03:34;;;;;;;;;;;9.40;99.90;;;;;;5023856;28;19930;-81
2022/03/04 13:06:03;;;;;;;;;;;10.30;99.90;;;;;;5023215;28;19940;-81
2022/03/04 13:08:32;;;;;;;;;;;9.50;99.90;;;;;;5038105;28;19936;-82
2022/03/04 13:11:17;;;;;;;;;;;9.50;99.90;;;;;;5027384;28;19940;-82
2022/03/04 13:13:46;;;;;;;;;;;9.50;99.90;;;;;;5024472;28;19930;-84
2022/03/04 13:16:22;;;;;;;;;;;9.60;99.90;;;;;;5024007;28;19925;-82
2022/03/04 13:18:52;;;;;;;;;;;9.60;99.90;;;;;;5007082;28;19925;-81
2022/03/04 13:21:33;;;;;;;;;;;9.60;99.90;;;;;;5039374;28;19925;-81
2022/03/04 13:24:06;;;;;;;;;;;9.60;99.90;;;;;;5035751;28;20387;-79
2022/03/04 13:26:34;;;;;;;;;;;8.80;99.90;;;;;;5021410;28;19926;-84
2022/03/04 13:29:09;;;;;;;;;;;9.60;99.90;;;;;;5023557;28;19925;-84
2022/03/04 13:31:37;;;;;;;;;;;9.60;99.90;;;;;;5039556;28;19929;-83
2022/03/04 13:34:09;;;;;;;;;;;9.80;99.90;;;;;;5021354;28;19930;-79
2022/03/04 13:36:50;;;;;;;;;;;9.50;99.90;;;;;;5023368;28;19925;-82
2022/03/04 13:39:20;;;;;;;;;;;9.70;99.90;;;;;;5037822;28;19926;-82
2022/03/04 13:42:06;;;;;;;;;;;9.60;99.90;;;;;;5021835;28;19925;-82
2022/03/04 13:44:34;;;;;;;;;;;9.70;99.90;;;;;;5020839;28;19940;-82
2022/03/04 13:47:07;;;;;;;;;;;9.60;99.90;;;;;;5025061;28;19925;-80
2022/03/04 13:49:49;;;;;;;;;;;9.50;99.90;;;;;;5009269;28;19933;-80
2022/03/04 13:52:17;;;;;;;;;;;9.40;99.90;;;;;;5024782;28;19933;-80
2022/03/04 13:54:48;;;;;;;;;;;9.40;99.90;;;;;;5025170;28;19932;-80
2022/03/04 13:57:31;;;;;;;;;;;9.60;99.90;;;;;;5025401;28;19929;-80
2022/03/04 14:00:09;;;;;;;;;;;9.50;99.90;;;;;;5026668;28;19933;-83
2022/03/04 14:02:46;;;;;;;;;;;9.10;99.90;;;;;;5028238;28;20622;-80
2022/03/04 14:05:26;;;;;;;;;;;9.50;99.90;;;;;;5026358;28;19930;-82
2022/03/04 14:08:05;;;;;;;;;;;9.50;99.90;;;;;;5009025;28;19936;-81
2022/03/04 14:10:35;;;;;;;;;;;9.40;99.90;;;;;;5009369;28;19926;-80
2022/03/04 14:13:04;;;;;;;;;;;9.40;99.90;;;;;;4999462;28;19926;-83
2022/03/04 14:15:35;;;;;;;;;;;9.40;99.90;;;;;;5025853;28;19932;-81
2022/03/04 14:18:05;;;;;;;;;;;9.40;99.90;;;;;;5011141;28;19933;-82
2022/03/04 14:20:35;;;;;;;;;;;9.40;99.90;;;;;;5024808;28;19932;-81
2022/03/04 14:23:04;;;;;;;;;;;9.40;99.90;;;;;;5026110;28;19932;-82
2022/03/04 14:25:33;;;;;;;;;;;9.50;99.90;;;;;;5010470;28;19925;-83
2022/03/04 14:28:02;;;;;;;;;;;9.50;99.90;;;;;;5008663;28;19936;-81
2022/03/04 14:30:32;;;;;;;;;;;9.40;99.90;;;;;;4993264;28;19933;-82
2022/03/04 14:33:01;;;;;;;;;;;9.40;99.90;;;;;;5023022;28;19926;-82
2022/03/04 14:35:31;;;;;;;;;;;9.80;99.90;;;;;;5022384;28;19929;-82
2022/03/04 14:38:00;;;;;;;;;;;9.30;99.90;;;;;;5023744;28;19929;-81
2022/03/04 14:40:28;;;;;;;;;;;9.30;99.90;;;;;;4991264;28;19932;-82
2022/03/04 14:42:57;;;;;;;;;;;9.20;99.90;;;;;;5009839;28;19926;-82
2022/03/04 14:45:25;;;;;;;;;;;9.20;99.90;;;;;;5019097;28;19925;-82
2022/03/04 14:47:54;;;;;;;;;;;8.80;99.90;;;;;;5020578;28;19925;-80
2022/03/04 14:50:25;;;;;;;;;;;9.20;99.90;;;;;;5007944;28;21649;-82
2022/03/04 14:52:54;;;;;;;;;;;9.20;99.90;;;;;;5013008;28;19932;-81
2022/03/04 14:55:24;;;;;;;;;;;9.20;99.90;;;;;;5027218;28;19929;-80
2022/03/04 14:57:52;;;;;;;;;;;9.20;99.90;;;;;;5024813;28;19931;-80
2022/03/04 15:00:22;;;;;;;;;;;9.10;99.90;;;;;;5024934;28;19937;-82
2022/03/04 15:02:50;;;;;;;;;;;9.20;99.90;;;;;;5004640;28;19954;-79
2022/03/04 15:05:19;;;;;;;;;;;9.10;99.90;;;;;;5008137;28;19932;-80
2022/03/04 15:07:49;;;;;;;;;;;8.80;99.90;;;;;;5026352;28;19933;-80
2022/03/04 15:10:18;;;;;;;;;;;9.10;99.90;;;;;;4991820;28;19929;-83
2022/03/04 15:12:47;;;;;;;;;;;9.10;99.90;;;;;;5005543;28;19929;-78
2022/03/04 15:15:19;;;;;;;;;;;9.00;99.90;;;;;;5113034;23;19931;-79
2022/03/04 15:17:47;;;;;;;;;;;9.10;99.90;;;;;;5030611;28;19933;-78
2022/03/04 15:20:16;;;;;;;;;;;9.00;99.90;;;;;;5035978;28;19929;-82
2022/03/04 15:22:46;;;;;;;;;;;9.00;99.90;;;;;;5039432;28;19925;-78
2022/03/04 15:25:15;;;;;;;;;;;9.10;99.90;;;;;;5007504;28;19936;-80
2022/03/04 15:27:43;;;;;;;;;;;9.10;99.90;;;;;;5007620;28;19940;-79
2022/03/04 15:30:12;;;;;;;;;;;9.10;99.90;;;;;;5039902;28;20348;-78
2022/03/04 15:32:41;;;;;;;;;;;9.10;99.90;;;;;;5039663;28;20279;-79
2022/03/04 15:35:09;;;;;;;;;;;9.10;99.90;;;;;;5022765;28;19944;-77
2022/03/04 15:37:42;;;;;;;;;;;9.00;99.90;;;;;;5008373;28;19925;-77
2022/03/04 15:40:10;;;;;;;;;;;9.00;99.90;;;;;;5039109;28;19933;-77
2022/03/04 15:42:42;;;;;;;;;;;9.00;99.90;;;;;;5037582;28;20397;-80
2022/03/04 15:45:10;;;;;;;;;;;8.90;99.90;;;;;;5038373;28;20094;-78
2022/03/04 15:47:38;;;;;;;;;;;8.90;99.90;;;;;;5019695;28;19940;-78
2022/03/04 15:50:06;;;;;;;;;;;10.20;99.90;;;;;;5018891;28;19936;-80
2022/03/04 15:52:35;;;;;;;;;;;8.80;99.90;;;;;;5036703;28;19925;-81
2022/03/04 15:55:05;;;;;;;;;;;8.80;99.90;;;;;;5037172;28;19926;-78
2022/03/04 15:57:33;;;;;;;;;;;8.70;99.90;;;;;;5020470;28;19935;-79
2022/03/04 16:00:03;;;;;;;;;;;8.60;99.90;;;;;;4671009;28;10000504;-78